Data for 12/01/2007

Time Sea-Level Adjusted Pressure Absolute Pressure Temperature Relative Humidity Dew Point   
(mb) (inHg) (mb) (inHg) (C) (F) (%) (C) (F)
00:05 1009 29.8 839 24.78 -12.6 9.2 90 -13.9 7
00:10 1009 29.8 839 24.78 -12.5 9.5 90 -13.9 7
00:15 1009 29.8 838 24.75 -12.5 9.6 89 -13.9 7
00:20 1009 29.8 838 24.75 -12.4 9.6 89 -13.9 7
00:25 1009 29.8 839 24.78 -12.4 9.6 89 -13.9 7
00:30 1009 29.8 839 24.78 -12.4 9.7 89 -13.9 7
00:35 1009 29.8 839 24.78 -12.4 9.7 89 -13.9 7.1
00:40 1009 29.8 839 24.78 -12.3 9.8 89 -13.8 7.2
00:45 1009 29.8 839 24.78 -12.3 9.9 89 -13.7 7.3
00:50 1009 29.8 839 24.78 -12.2 10 89 -13.7 7.4
00:55 1009 29.8 839 24.78 -12.2 10 89 -13.7 7.3
01:00 1009 29.8 839 24.78 -12.2 10 89 -13.6 7.5
01:05 1009 29.8 838 24.75 -12.1 10.2 89 -13.6 7.5
01:10 1009 29.8 838 24.75 -12.2 10.1 89 -13.6 7.4
01:15 1009 29.8 838 24.75 -12.2 10 89 -13.7 7.4
01:20 1009 29.8 838 24.75 -12.2 10.1 89 -13.6 7.5
01:25 1009 29.8 838 24.75 -12.2 10 89 -13.6 7.5
01:30 1009 29.8 838 24.75 -12.3 9.9 90 -13.7 7.4
01:35 1009 29.8 838 24.75 -12.2 10.1 89 -13.6 7.5
01:40 1009 29.8 838 24.75 -12.1 10.2 89 -13.6 7.6
01:45 1009 29.8 838 24.75 -12 10.4 88 -13.6 7.5
01:50 1008 29.77 838 24.75 -12.1 10.2 89 -13.6 7.5
01:55 1008 29.77 838 24.75 -12.3 9.8 90 -13.6 7.5
02:00 1008 29.77 838 24.75 -12.4 9.7 90 -13.7 7.4
02:05 1008 29.77 837 24.72 -12.4 9.8 91 -13.5 7.6
02:10 1008 29.77 837 24.72 -12.3 9.9 89 -13.7 7.4
02:15 1008 29.77 837 24.72 -12.5 9.5 90 -13.8 7.2
02:20 1008 29.77 837 24.72 -12.7 9.1 91 -13.8 7.1
02:25 1008 29.77 837 24.72 -12.8 9 91 -13.9 7
02:30 1007 29.74 837 24.72 -12.8 8.9 92 -13.8 7.2
02:35 1008 29.77 837 24.72 -12.6 9.3 91 -13.8 7.2
02:40 1008 29.77 837 24.72 -12.5 9.6 90 -13.7 7.3
02:45 1008 29.77 837 24.72 -12.5 9.5 91 -13.7 7.3
02:50 1008 29.77 837 24.72 -12.5 9.5 91 -13.8 7.2
02:55 1008 29.77 837 24.72 -12.5 9.6 90 -13.8 7.2
03:00 1008 29.77 838 24.75 -12.5 9.6 90 -13.8 7.2
03:05 1008 29.77 838 24.75 -12.5 9.4 90 -13.8 7.1
03:10 1008 29.77 838 24.75 -12.6 9.3 90 -13.8 7.1
03:15 1008 29.77 837 24.72 -12.5 9.5 90 -13.8 7.1
03:20 1008 29.77 837 24.72 -12.4 9.7 90 -13.7 7.3
03:25 1008 29.77 837 24.72 -12.3 9.9 89 -13.8 7.2
03:30 1007 29.74 837 24.72 -12.4 9.7 89 -13.8 7.2
03:35 1007 29.74 836 24.69 -12.5 9.5 90 -13.8 7.1
03:40 1007 29.74 836 24.69 -12.4 9.6 89 -13.8 7.1
03:45 1007 29.74 836 24.69 -12.4 9.6 89 -13.9 7.1
03:50 1007 29.74 837 24.72 -12.5 9.6 89 -13.9 7
03:55 1007 29.74 837 24.72 -12.4 9.7 89 -13.8 7.1
04:00 1007 29.74 837 24.72 -12.4 9.7 88 -13.9 6.9
04:05 1007 29.74 837 24.72 -12.6 9.3 89 -14.1 6.6
04:10 1007 29.74 837 24.72 -12.8 9 89 -14.3 6.3
04:15 1007 29.74 837 24.72 -12.8 9 88 -14.3 6.2
04:20 1008 29.77 837 24.72 -12.8 8.9 88 -14.4 6.1
04:25 1008 29.77 837 24.72 -12.8 8.9 89 -14.4 6.2
04:30 1007 29.74 837 24.72 -12.8 8.9 88 -14.4 6.1
04:35 1007 29.74 836 24.69 -12.9 8.9 88 -14.4 6
04:40 1007 29.74 836 24.69 -12.9 8.9 88 -14.4 6
04:45 1007 29.74 836 24.69 -12.8 9 87 -14.5 5.9
04:50 1007 29.74 836 24.69 -12.8 8.9 87 -14.5 5.9
04:55 1007 29.74 836 24.69 -12.9 8.8 88 -14.5 5.8
05:00 1007 29.74 836 24.69 -12.9 8.8 87 -14.6 5.7
05:05 1007 29.74 836 24.69 -12.9 8.7 87 -14.6 5.6
05:10 1007 29.74 836 24.69 -13 8.6 87 -14.7 5.5
05:15 1007 29.74 836 24.69 -13 8.5 87 -14.8 5.4
05:20 1007 29.74 836 24.69 -13.2 8.2 87 -14.9 5.2
05:25 1007 29.74 836 24.69 -13.3 8 87 -15.1 4.9
05:30 1007 29.74 836 24.69 -13.4 7.9 86 -15.3 4.5
05:35 1006 29.71 836 24.69 -13.5 7.6 86 -15.4 4.3
05:40 1007 29.74 836 24.69 -13.6 7.5 86 -15.5 4.1
05:45 1007 29.74 836 24.69 -13.7 7.3 87 -15.5 4
05:50 1006 29.71 836 24.69 -13.8 7.2 86 -15.6 3.9
05:55 1006 29.71 836 24.69 -13.9 7 87 -15.6 4
06:00 1006 29.71 836 24.69 -13.9 6.9 87 -15.6 3.9
06:05 1006 29.71 836 24.69 -14 6.7 87 -15.7 3.7
06:10 1007 29.74 836 24.69 -14 6.8 87 -15.8 3.6
06:15 1007 29.74 836 24.69 -14 6.7 87 -15.8 3.6
06:20 1007 29.74 836 24.69 -14.1 6.7 86 -15.8 3.5
06:25 1007 29.74 836 24.69 -14.1 6.6 86 -16 3.2
06:30 1007 29.74 836 24.69 -14.2 6.5 86 -16 3.2
06:35 1007 29.74 836 24.69 -14.2 6.4 86 -16.1 3
06:40 1007 29.74 836 24.69 -14.5 6 87 -16.1 3
06:45 1007 29.74 836 24.69 -14.2 6.4 86 -16.1 3.1
06:50 1007 29.74 836 24.69 -14.2 6.4 86 -16.1 3
06:55 1006 29.71 836 24.69 -14.4 6.2 86 -16.2 2.8
07:00 1007 29.74 836 24.69 -14.4 6.1 86 -16.2 2.8
07:05 1007 29.74 836 24.69 -14.4 6.1 86 -16.2 2.8
07:10 1007 29.74 836 24.69 -14.7 5.6 87 -16.3 2.7
07:15 1007 29.74 836 24.69 -14.7 5.5 86 -16.5 2.2
07:20 1007 29.74 836 24.69 -14.6 5.8 87 -16.3 2.6
07:25 1007 29.74 836 24.69 -14.4 6.1 86 -16.2 2.9
07:30 1007 29.74 836 24.69 -14.3 6.3 86 -16.2 2.9
07:35 1007 29.74 836 24.69 -14 6.7 85 -16.1 3
07:40 1007 29.74 836 24.69 -14.1 6.7 85 -16.1 3
07:45 1007 29.74 836 24.69 -14.1 6.7 85 -16.2 2.9
07:50 1007 29.74 836 24.69 -14.2 6.5 86 -16 3.3
07:55 1007 29.74 836 24.69 -14.4 6.1 87 -16 3.1
08:00 1007 29.74 836 24.69 -14.4 6 87 -16.2 2.8
08:05 1007 29.74 836 24.69 -14.5 5.9 87 -16.2 2.9
08:10 1007 29.74 836 24.69 -14.7 5.5 89 -16.2 2.8
08:15 1007 29.74 836 24.69 -14.7 5.6 88 -16.2 2.9
08:20 1007 29.74 836 24.69 -14.5 6 87 -16.2 2.9
08:25 1006 29.71 836 24.69 -14.1 6.6 85 -16.1 3
08:30 1007 29.74 836 24.69 -14 6.8 85 -16 3.2
08:35 1007 29.74 836 24.69 -13.9 7 85 -15.9 3.5
08:40 1006 29.71 836 24.69 -13.8 7.2 84 -16 3.2
08:45 1007 29.74 836 24.69 -13.9 6.9 85 -16 3.2
08:50 1007 29.74 836 24.69 -13.8 7.2 84 -15.9 3.3
08:55 1007 29.74 836 24.69 -13.7 7.4 83 -15.9 3.3
09:00 1007 29.74 836 24.69 -13.6 7.6 82 -15.9 3.3
09:05 1007 29.74 836 24.69 -13.6 7.6 82 -16 3.2
09:10 1007 29.74 836 24.69 -13.5 7.7 82 -15.9 3.3
09:15 1007 29.74 836 24.69 -13.6 7.5 82 -16 3.1
09:20 1007 29.74 836 24.69 -13.7 7.3 82 -16.1 3
09:25 1007 29.74 836 24.69 -13.5 7.7 82 -16 3.2
09:30 1007 29.74 836 24.69 -13.4 7.8 83 -15.8 3.6
09:35 1007 29.74 836 24.69 -13.6 7.5 84 -15.8 3.5
09:40 1007 29.74 836 24.69 -13.7 7.3 82 -16.1 3
09:45 1007 29.74 836 24.69 -13.6 7.5 80 -16.3 2.6
09:50 1007 29.74 836 24.69 -13.4 7.8 79 -16.3 2.7
09:55 1007 29.74 836 24.69 -13.1 8.4 79 -15.9 3.3
10:00 1007 29.74 836 24.69 -13 8.6 76 -16.4 2.5
10:05 1007 29.74 836 24.69 -12.9 8.8 74 -16.6 2.1
10:10 1007 29.74 836 24.69 -13 8.6 73 -16.8 1.8
10:15 1007 29.74 836 24.69 -12.8 9 72 -16.8 1.7
10:20 1006 29.71 836 24.69 -12.6 9.3 71 -16.9 1.6
10:25 1006 29.71 836 24.69 -12.4 9.6 70 -16.8 1.7
10:30 1006 29.71 836 24.69 -12.3 9.9 67 -17.2 1.1
10:35 1006 29.71 836 24.69 -12.4 9.6 68 -17.2 1
10:40 1006 29.71 835 24.66 -12.4 9.7 67 -17.2 1
10:45 1006 29.71 835 24.66 -12.1 10.2 66 -17.3 0.9
10:50 1006 29.71 835 24.66 -11.8 10.7 65 -17.1 1.3
10:55 1006 29.71 835 24.66 -11.9 10.6 66 -17.1 1.2
11:00 1006 29.71 835 24.66 -12.1 10.1 67 -17.1 1.2
11:05 1006 29.71 835 24.66 -12.2 10 67 -17.2 1.1
11:10 1006 29.71 835 24.66 -12.2 10.1 67 -17.1 1.1
11:15 1006 29.71 835 24.66 -11.9 10.6 67 -16.9 1.6
11:20 1006 29.71 835 24.66 -11.9 10.5 66 -17.1 1.3
11:25 1006 29.71 835 24.66 -12.2 10.1 67 -17.1 1.3
11:30 1006 29.71 835 24.66 -12.3 9.9 67 -17.2 1.1
11:35 1006 29.71 835 24.66 -12 10.4 66 -17.1 1.3
11:40 1006 29.71 835 24.66 -12.1 10.2 71 -16.4 2.5
11:45 1006 29.71 835 24.66 -12.2 10 71 -16.5 2.4
11:50 1006 29.71 835 24.66 -12.5 9.5 72 -16.6 2.2
11:55 1006 29.71 835 24.66 -12.6 9.3 75 -16.1 3
12:00 1006 29.71 835 24.66 -12.3 9.9 73 -16.1 3
12:05 1006 29.71 835 24.66 -12.9 8.8 78 -16 3.2
12:10 1006 29.71 835 24.66 -12.6 9.3 76 -16.1 3
12:15 1006 29.71 835 24.66 -11.9 10.7 72 -15.9 3.3
12:20 1006 29.71 835 24.66 -12 10.4 75 -15.5 4.1
12:25 1006 29.71 835 24.66 -12.1 10.1 76 -15.5 4.1
12:30 1006 29.71 835 24.66 -12.1 10.3 71 -16.4 2.5
12:35 1006 29.71 835 24.66 -11.9 10.6 72 -16 3.2
12:40 1006 29.71 835 24.66 -12 10.4 75 -15.5 4.1
12:45 1006 29.71 835 24.66 -12 10.4 72 -16.1 2.9
12:50 1006 29.71 835 24.66 -11.6 11.2 71 -15.9 3.5
12:55 1006 29.71 835 24.66 -12.1 10.3 73 -16 3.3
13:00 1006 29.71 835 24.66 -12.2 10 74 -16 3.1
13:05 1006 29.71 835 24.66 -11.8 10.7 71 -16.2 2.9
13:10 1006 29.71 835 24.66 -12.1 10.3 75 -15.7 3.8
13:15 1006 29.71 835 24.66 -11.7 11 70 -16.1 3.1
13:20 1006 29.71 835 24.66 -12 10.4 75 -15.6 3.9
13:25 1006 29.71 835 24.66 -12.1 10.3 72 -16.2 2.9
13:30 1006 29.71 835 24.66 -11.7 11 71 -15.8 3.5
13:35 1006 29.71 835 24.66 -12.1 10.2 74 -15.8 3.5
13:40 1006 29.71 835 24.66 -12.2 10.1 72 -16.2 2.8
13:45 1006 29.71 835 24.66 -11.7 10.9 70 -16.2 2.9
13:50 1006 29.71 835 24.66 -11 12.3 67 -16 3.2
13:55 1006 29.71 835 24.66 -12.2 10.1 74 -15.9 3.4
14:00 1006 29.71 835 24.66 -12.1 10.3 71 -16.3 2.6
14:05 1006 29.71 835 24.66 -12.3 9.9 74 -16.1 3
14:10 1006 29.71 835 24.66 -11.8 10.7 70 -16.3 2.6
14:15 1006 29.71 835 24.66 -11.4 11.4 72 -15.6 4
14:20 1006 29.71 835 24.66 -11.5 11.4 70 -15.9 3.5
14:25 1006 29.71 835 24.66 -11.2 11.9 70 -15.7 3.8
14:30 1006 29.71 835 24.66 -11.1 12 69 -15.7 3.7
14:35 1006 29.71 835 24.66 -11.4 11.6 69 -15.9 3.4
14:40 1006 29.71 835 24.66 -11.3 11.6 69 -15.9 3.4
14:45 1006 29.71 835 24.66 -11 12.2 68 -15.8 3.5
14:50 1006 29.71 835 24.66 -11.5 11.3 69 -16 3.2
14:55 1006 29.71 835 24.66 -12.1 10.3 73 -15.9 3.4
15:00 1006 29.71 835 24.66 -11.9 10.7 72 -15.9 3.4
15:05 1006 29.71 835 24.66 -12.2 10.1 74 -15.9 3.4
15:10 1006 29.71 835 24.66 -12.5 9.5 75 -16 3.2
15:15 1006 29.71 835 24.66 -12.7 9.2 78 -15.8 3.5
15:20 1006 29.71 835 24.66 -12.4 9.8 75 -16 3.3
15:25 1006 29.71 835 24.66 -12.3 9.9 76 -15.7 3.7
15:30 1006 29.71 835 24.66 -12 10.4 75 -15.6 3.9
15:35 1006 29.71 836 24.69 -12.1 10.3 77 -15.4 4.4
15:40 1006 29.71 836 24.69 -12.3 9.8 77 -15.5 4.1
15:45 1006 29.71 836 24.69 -12.3 9.8 77 -15.6 4
15:50 1006 29.71 836 24.69 -12.3 9.8 76 -15.8 3.6
15:55 1007 29.74 836 24.69 -12.7 9.1 78 -15.8 3.5
16:00 1007 29.74 836 24.69 -12.7 9.2 77 -15.8 3.5
16:05 1007 29.74 836 24.69 -13 8.7 80 -15.7 3.7
16:10 1007 29.74 836 24.69 -13.1 8.5 81 -15.7 3.8
16:15 1007 29.74 836 24.69 -13.1 8.4 81 -15.8 3.6
16:20 1007 29.74 836 24.69 -13 8.6 80 -15.8 3.6
16:25 1007 29.74 836 24.69 -12.9 8.9 80 -15.6 3.9
16:30 1007 29.74 836 24.69 -13.1 8.5 81 -15.6 3.9
16:35 1007 29.74 836 24.69 -13.3 8.1 82 -15.7 3.7
16:40 1007 29.74 836 24.69 -13.1 8.3 81 -15.7 3.7
16:45 1007 29.74 836 24.69 -13.2 8.3 81 -15.8 3.5
16:50 1007 29.74 836 24.69 -13.3 8.2 82 -15.7 3.7
16:55 1007 29.74 836 24.69 -13.3 8.1 82 -15.7 3.7
17:00 1007 29.74 836 24.69 -13.3 8 82 -15.7 3.7
17:05 1007 29.74 836 24.69 -13.4 8 83 -15.7 3.7
17:10 1007 29.74 837 24.72 -13.3 8 82 -15.8 3.6
17:15 1007 29.74 837 24.72 -13.3 8.1 82 -15.8 3.5
17:20 1007 29.74 837 24.72 -13.5 7.8 83 -15.8 3.5
17:25 1007 29.74 837 24.72 -13.5 7.8 82 -15.9 3.5
17:30 1007 29.74 837 24.72 -13.5 7.7 83 -15.8 3.6
17:35 1008 29.77 837 24.72 -13.6 7.5 82 -16 3.2
17:40 1008 29.77 837 24.72 -13.8 7.1 84 -16 3.3
17:45 1008 29.77 837 24.72 -13.9 7 84 -16 3.2
17:50 1008 29.77 837 24.72 -13.8 7.2 85 -15.8 3.5
17:55 1008 29.77 837 24.72 -13.8 7.1 85 -15.8 3.6
18:00 1008 29.77 837 24.72 -14.1 6.7 86 -16 3.3
18:05 1008 29.77 837 24.72 -14.2 6.5 86 -16 3.2
18:10 1008 29.77 837 24.72 -14.3 6.2 87 -16.1 3
18:15 1008 29.77 837 24.72 -14.4 6 87 -16.2 2.9
18:20 1007 29.74 837 24.72 -14.4 6 87 -16.2 2.9
18:25 1007 29.74 837 24.72 -14.5 5.9 86 -16.4 2.6
18:30 1007 29.74 837 24.72 -14.5 5.8 86 -16.4 2.4
18:35 1007 29.74 836 24.69 -14.5 5.9 85 -16.5 2.3
18:40 1007 29.74 837 24.72 -14.5 5.9 84 -16.7 1.9
18:45 1007 29.74 837 24.72 -14.5 5.9 84 -16.7 2
18:50 1007 29.74 837 24.72 -14.6 5.8 85 -16.6 2.1
18:55 1007 29.74 836 24.69 -14.6 5.6 85 -16.7 2
19:00 1007 29.74 836 24.69 -14.7 5.5 85 -16.7 1.9
19:05 1007 29.74 836 24.69 -14.9 5.2 85 -16.8 1.7
19:10 1007 29.74 836 24.69 -14.7 5.5 82 -17.1 1.2
19:15 1007 29.74 836 24.69 -14.6 5.7 82 -17.1 1.3
19:20 1007 29.74 836 24.69 -14.6 5.8 81 -17.1 1.2
19:25 1007 29.74 837 24.72 -14.5 5.9 80 -17.2 1
19:30 1007 29.74 837 24.72 -14.4 6.2 78 -17.4 0.6
19:35 1007 29.74 837 24.72 -14.3 6.4 78 -17.3 0.8
19:40 1007 29.74 837 24.72 -14.1 6.6 77 -17.3 0.9
19:45 1008 29.77 837 24.72 -14.1 6.6 78 -17.2 1.1
19:50 1008 29.77 837 24.72 -14 6.7 80 -16.8 1.7
19:55 1008 29.77 837 24.72 -14.1 6.6 81 -16.7 1.9
20:00 1008 29.77 837 24.72 -14.2 6.5 82 -16.6 2.1
20:05 1008 29.77 837 24.72 -14.4 6.2 82 -16.7 1.9
20:10 1008 29.77 837 24.72 -14.6 5.8 83 -16.8 1.7
20:15 1008 29.77 837 24.72 -14.5 5.9 84 -16.7 2
20:20 1008 29.77 837 24.72 -14.4 6.1 84 -16.6 2.2
20:25 1008 29.77 837 24.72 -14.3 6.3 83 -16.5 2.3
20:30 1008 29.77 837 24.72 -14.2 6.4 83 -16.5 2.3
20:35 1008 29.77 837 24.72 -14.2 6.5 83 -16.4 2.5
20:40 1008 29.77 837 24.72 -14.1 6.6 84 -16.2 2.8
20:45 1008 29.77 837 24.72 -14.1 6.6 84 -16.3 2.7
20:50 1008 29.77 837 24.72 -14 6.8 83 -16.3 2.7
20:55 1008 29.77 837 24.72 -14 6.8 83 -16.3 2.7
21:00 1008 29.77 837 24.72 -14.2 6.5 83 -16.4 2.5
21:05 1008 29.77 837 24.72 -14.2 6.5 83 -16.4 2.4
21:10 1008 29.77 837 24.72 -14.2 6.5 83 -16.5 2.3
21:15 1008 29.77 837 24.72 -14.3 6.2 83 -16.6 2.1
21:20 1008 29.77 837 24.72 -14.5 6 83 -16.7 1.9
21:25 1008 29.77 838 24.75 -14.4 6.2 81 -16.9 1.6
21:30 1008 29.77 838 24.75 -14.3 6.2 81 -16.9 1.6
21:35 1008 29.77 838 24.75 -14.5 6 82 -16.8 1.7
21:40 1008 29.77 838 24.75 -14.8 5.4 83 -17.1 1.2
21:45 1008 29.77 838 24.75 -15.3 4.4 84 -17.5 0.5
21:50 1008 29.77 838 24.75 -15.6 3.9 83 -17.8 -0.1
21:55 1008 29.77 837 24.72 -15.8 3.5 84 -17.9 -0.3
22:00 1008 29.77 838 24.75 -16 3.1 85 -18 -0.4
22:05 1008 29.77 837 24.72 -15.9 3.3 85 -17.9 -0.2
22:10 1008 29.77 838 24.75 -15.3 4.5 82 -17.7 0.1
22:15 1009 29.8 838 24.75 -15.3 4.5 81 -17.8 -0.1
22:20 1009 29.8 838 24.75 -15.2 4.6 80 -17.9 -0.2
22:25 1009 29.8 838 24.75 -15.3 4.6 80 -18 -0.3
22:30 1009 29.8 838 24.75 -15.4 4.2 81 -18 -0.3
22:35 1009 29.8 838 24.75 -15.5 4.1 82 -17.9 -0.3
22:40 1009 29.8 838 24.75 -15.5 4.1 82 -17.9 -0.2
22:45 1009 29.8 838 24.75 -15.3 4.4 81 -17.8 -0.1
22:50 1009 29.8 838 24.75 -15.1 4.9 80 -17.7 0.1
22:55 1009 29.8 838 24.75 -14.9 5.3 79 -17.7 0.2
23:00 1009 29.8 838 24.75 -14.8 5.3 79 -17.7 0.1
23:05 1009 29.8 839 24.78 -15.1 4.9 81 -17.7 0.1
23:10 1009 29.8 839 24.78 -15.5 4 82 -18 -0.4
23:15 1009 29.8 839 24.78 -16 3.3 80 -18.6 -1.5
23:20 1010 29.83 839 24.78 -16.7 2 85 -18.7 -1.6
23:25 1010 29.83 839 24.78 -16.2 2.8 80 -18.9 -2.1
23:30 1010 29.83 839 24.78 -16 3.2 80 -18.7 -1.7
23:35 1010 29.83 839 24.78 -16.2 2.9 80 -18.9 -2
23:40 1010 29.83 839 24.78 -16.4 2.6 82 -18.8 -1.8
23:45 1009 29.8 839 24.78 -16.3 2.7 82 -18.7 -1.7
23:50 1010 29.83 839 24.78 -16.2 2.8 81 -18.7 -1.7
23:55 1010 29.83 839 24.78 -16.2 2.9 82 -18.6 -1.5
24:00 1010 29.83 839 24.78 -16 3.2 82 -18.4 -1.1